sensor_id;sensor_type;location;lat;lon;timestamp;P1;durP1;ratioP1;P2;durP2;ratioP2
35592;SDS011;64447;52.140;5.602;2023-09-08T15:03:53;10.23;;;9.15;;
35592;SDS011;64447;52.140;5.602;2023-09-08T15:06:20;10.90;;;8.63;;
35592;SDS011;64447;52.140;5.602;2023-09-08T15:08:45;9.88;;;8.98;;
35592;SDS011;64447;52.140;5.602;2023-09-08T15:11:11;13.68;;;10.10;;
35592;SDS011;64447;52.140;5.602;2023-09-08T15:13:37;10.77;;;8.52;;
35592;SDS011;64447;52.140;5.602;2023-09-08T15:19:24;9.43;;;8.45;;
35592;SDS011;64447;52.140;5.602;2023-09-08T15:21:50;12.77;;;8.38;;
35592;SDS011;64447;52.140;5.602;2023-09-08T15:24:16;9.75;;;8.70;;
35592;SDS011;64447;52.140;5.602;2023-09-08T15:26:41;9.95;;;8.77;;
35592;SDS011;64447;52.140;5.602;2023-09-08T15:29:07;9.48;;;8.48;;
35592;SDS011;64447;52.140;5.602;2023-09-08T15:31:33;9.25;;;7.95;;
35592;SDS011;64447;52.140;5.602;2023-09-08T15:33:58;8.88;;;7.97;;
35592;SDS011;64447;52.140;5.602;2023-09-08T15:36:24;10.15;;;8.65;;
35592;SDS011;64447;52.140;5.602;2023-09-08T15:38:49;9.77;;;8.80;;
35592;SDS011;64447;52.140;5.602;2023-09-08T15:41:16;10.07;;;8.40;;
35592;SDS011;64447;52.140;5.602;2023-09-08T15:43:43;11.35;;;8.88;;
35592;SDS011;64447;52.140;5.602;2023-09-08T15:49:33;8.98;;;8.07;;
35592;SDS011;64447;52.140;5.602;2023-09-08T15:51:59;9.38;;;8.20;;
35592;SDS011;64447;52.140;5.602;2023-09-08T15:54:25;8.93;;;8.02;;
35592;SDS011;64447;52.140;5.602;2023-09-08T15:56:51;9.43;;;8.23;;
35592;SDS011;64447;52.140;5.602;2023-09-08T15:59:17;8.98;;;7.70;;
35592;SDS011;64447;52.140;5.602;2023-09-08T16:01:42;9.98;;;8.18;;
35592;SDS011;64447;52.140;5.602;2023-09-08T16:04:08;9.30;;;8.35;;
35592;SDS011;64447;52.140;5.602;2023-09-08T16:06:38;12.05;;;8.25;;
35592;SDS011;64447;52.140;5.602;2023-09-08T16:09:04;9.68;;;7.70;;
35592;SDS011;64447;52.140;5.602;2023-09-08T16:11:31;10.15;;;7.88;;
35592;SDS011;64447;52.140;5.602;2023-09-08T16:13:57;12.40;;;7.82;;
35592;SDS011;64447;52.140;5.602;2023-09-08T16:19:45;8.55;;;7.63;;
35592;SDS011;64447;52.140;5.602;2023-09-08T16:22:11;10.65;;;8.38;;
35592;SDS011;64447;52.140;5.602;2023-09-08T16:24:36;13.95;;;8.45;;
35592;SDS011;64447;52.140;5.602;2023-09-08T16:27:02;9.30;;;8.05;;
35592;SDS011;64447;52.140;5.602;2023-09-08T16:29:28;10.25;;;8.73;;
35592;SDS011;64447;52.140;5.602;2023-09-08T16:31:54;8.35;;;7.50;;
35592;SDS011;64447;52.140;5.602;2023-09-08T16:36:45;11.98;;;10.82;;
35592;SDS011;64447;52.140;5.602;2023-09-08T16:39:10;12.55;;;11.25;;
35592;SDS011;64447;52.140;5.602;2023-09-08T16:41:36;9.60;;;8.70;;
35592;SDS011;64447;52.140;5.602;2023-09-08T16:44:01;9.63;;;8.52;;
35592;SDS011;64447;52.140;5.602;2023-09-08T16:49:49;11.38;;;10.18;;
35592;SDS011;64447;52.140;5.602;2023-09-08T16:52:14;14.75;;;11.70;;
35592;SDS011;64447;52.140;5.602;2023-09-08T16:54:40;9.80;;;8.80;;
35592;SDS011;64447;52.140;5.602;2023-09-08T16:57:05;11.98;;;8.93;;
35592;SDS011;64447;52.140;5.602;2023-09-08T16:59:31;9.48;;;8.20;;
35592;SDS011;64447;52.140;5.602;2023-09-08T17:01:57;9.00;;;7.63;;
35592;SDS011;64447;52.140;5.602;2023-09-08T17:04:22;10.02;;;8.82;;
35592;SDS011;64447;52.140;5.602;2023-09-08T17:06:48;9.10;;;8.23;;
35592;SDS011;64447;52.140;5.602;2023-09-08T17:09:13;8.88;;;7.90;;
35592;SDS011;64447;52.140;5.602;2023-09-08T17:11:39;9.10;;;8.23;;
35592;SDS011;64447;52.140;5.602;2023-09-08T17:14:06;9.27;;;7.57;;
35592;SDS011;64447;52.140;5.602;2023-09-08T17:19:53;12.43;;;9.20;;
35592;SDS011;64447;52.140;5.602;2023-09-08T17:22:21;10.18;;;8.15;;
35592;SDS011;64447;52.140;5.602;2023-09-08T17:24:47;9.68;;;8.50;;
35592;SDS011;64447;52.140;5.602;2023-09-08T17:27:14;11.52;;;8.65;;
35592;SDS011;64447;52.140;5.602;2023-09-08T17:29:39;11.38;;;9.00;;
35592;SDS011;64447;52.140;5.602;2023-09-08T17:32:05;9.30;;;8.27;;
35592;SDS011;64447;52.140;5.602;2023-09-08T17:34:31;8.65;;;7.82;;
35592;SDS011;64447;52.140;5.602;2023-09-08T17:36:56;10.18;;;8.38;;
35592;SDS011;64447;52.140;5.602;2023-09-08T17:39:25;8.75;;;7.88;;
35592;SDS011;64447;52.140;5.602;2023-09-08T17:41:50;10.63;;;9.02;;
35592;SDS011;64447;52.140;5.602;2023-09-08T17:44:16;9.95;;;9.05;;
35592;SDS011;64447;52.140;5.602;2023-09-08T17:50:04;10.23;;;9.30;;
35592;SDS011;64447;52.140;5.602;2023-09-08T17:52:30;11.63;;;9.05;;
35592;SDS011;64447;52.140;5.602;2023-09-08T17:54:55;10.07;;;8.48;;
35592;SDS011;64447;52.140;5.602;2023-09-08T17:57:21;10.50;;;9.57;;
35592;SDS011;64447;52.140;5.602;2023-09-08T17:59:47;10.68;;;9.68;;
35592;SDS011;64447;52.140;5.602;2023-09-08T18:02:12;11.35;;;9.05;;
35592;SDS011;64447;52.140;5.602;2023-09-08T18:04:39;10.48;;;9.27;;
35592;SDS011;64447;52.140;5.602;2023-09-08T18:07:06;10.57;;;9.20;;
35592;SDS011;64447;52.140;5.602;2023-09-08T18:09:31;11.40;;;8.88;;
35592;SDS011;64447;52.140;5.602;2023-09-08T18:11:58;10.63;;;9.63;;
35592;SDS011;64447;52.140;5.602;2023-09-08T18:14:24;12.57;;;10.13;;
35592;SDS011;64447;52.140;5.602;2023-09-08T18:50:15;13.45;;;12.10;;
35592;SDS011;64447;52.140;5.602;2023-09-08T18:52:41;13.93;;;11.52;;
35592;SDS011;64447;52.140;5.602;2023-09-08T18:55:06;13.93;;;11.70;;
35592;SDS011;64447;52.140;5.602;2023-09-08T18:57:32;12.73;;;10.90;;
35592;SDS011;64447;52.140;5.602;2023-09-08T18:59:58;13.27;;;11.65;;
35592;SDS011;64447;52.140;5.602;2023-09-08T19:02:23;15.32;;;11.80;;
35592;SDS011;64447;52.140;5.602;2023-09-08T19:04:49;15.43;;;11.93;;
35592;SDS011;64447;52.140;5.602;2023-09-08T19:07:16;14.98;;;11.73;;
35592;SDS011;64447;52.140;5.602;2023-09-08T19:09:42;20.33;;;12.65;;
35592;SDS011;64447;52.140;5.602;2023-09-08T19:12:07;14.25;;;11.10;;
35592;SDS011;64447;52.140;5.602;2023-09-08T19:14:33;14.57;;;11.98;;
35592;SDS011;64447;52.140;5.602;2023-09-08T19:20:21;19.17;;;14.63;;
35592;SDS011;64447;52.140;5.602;2023-09-08T19:22:46;19.92;;;15.43;;
35592;SDS011;64447;52.140;5.602;2023-09-08T19:25:12;20.83;;;16.92;;
35592;SDS011;64447;52.140;5.602;2023-09-08T19:27:37;22.98;;;17.60;;
35592;SDS011;64447;52.140;5.602;2023-09-08T19:30:03;22.40;;;17.05;;
35592;SDS011;64447;52.140;5.602;2023-09-08T19:36:11;24.42;;;16.25;;
35592;SDS011;64447;52.140;5.602;2023-09-08T19:38:36;22.77;;;16.20;;
35592;SDS011;64447;52.140;5.602;2023-09-08T19:41:02;19.17;;;16.02;;
35592;SDS011;64447;52.140;5.602;2023-09-08T19:43:29;21.50;;;16.63;;
35592;SDS011;64447;52.140;5.602;2023-09-08T19:46:00;25.33;;;18.23;;
35592;SDS011;64447;52.140;5.602;2023-09-08T19:48:28;24.60;;;17.60;;
35592;SDS011;64447;52.140;5.602;2023-09-08T19:50:54;26.80;;;18.63;;
35592;SDS011;64447;52.140;5.602;2023-09-08T19:53:20;25.85;;;18.92;;
35592;SDS011;64447;52.140;5.602;2023-09-08T19:55:47;30.25;;;20.70;;
35592;SDS011;64447;52.140;5.602;2023-09-08T19:58:14;31.65;;;23.23;;
35592;SDS011;64447;52.140;5.602;2023-09-08T20:00:40;28.00;;;23.20;;
35592;SDS011;64447;52.140;5.602;2023-09-08T20:03:05;34.38;;;24.90;;
35592;SDS011;64447;52.140;5.602;2023-09-08T20:05:31;33.00;;;25.38;;
35592;SDS011;64447;52.140;5.602;2023-09-08T20:07:56;30.52;;;24.38;;
35592;SDS011;64447;52.140;5.602;2023-09-08T20:10:22;31.20;;;23.90;;
35592;SDS011;64447;52.140;5.602;2023-09-08T20:12:51;30.95;;;25.50;;
35592;SDS011;64447;52.140;5.602;2023-09-08T20:15:16;36.88;;;25.83;;
35592;SDS011;64447;52.140;5.602;2023-09-08T20:21:04;35.05;;;25.65;;
35592;SDS011;64447;52.140;5.602;2023-09-08T20:23:30;31.85;;;26.25;;
35592;SDS011;64447;52.140;5.602;2023-09-08T20:25:57;31.23;;;26.02;;
35592;SDS011;64447;52.140;5.602;2023-09-08T20:28:23;33.33;;;26.27;;
35592;SDS011;64447;52.140;5.602;2023-09-08T20:30:55;37.55;;;27.50;;
35592;SDS011;64447;52.140;5.602;2023-09-08T20:33:20;34.78;;;27.80;;
35592;SDS011;64447;52.140;5.602;2023-09-08T20:35:46;31.40;;;27.30;;
35592;SDS011;64447;52.140;5.602;2023-09-08T20:38:11;33.53;;;26.50;;
35592;SDS011;64447;52.140;5.602;2023-09-08T20:40:38;31.33;;;27.20;;
35592;SDS011;64447;52.140;5.602;2023-09-08T20:43:11;30.48;;;27.17;;
35592;SDS011;64447;52.140;5.602;2023-09-08T20:45:36;34.70;;;28.58;;
35592;SDS011;64447;52.140;5.602;2023-09-08T20:48:02;32.22;;;27.80;;
35592;SDS011;64447;52.140;5.602;2023-09-08T20:50:28;36.42;;;30.00;;
35592;SDS011;64447;52.140;5.602;2023-09-08T20:52:54;35.88;;;29.83;;
35592;SDS011;64447;52.140;5.602;2023-09-08T20:55:20;35.15;;;29.98;;
35592;SDS011;64447;52.140;5.602;2023-09-08T20:57:45;36.03;;;29.65;;
35592;SDS011;64447;52.140;5.602;2023-09-08T21:00:11;36.58;;;30.10;;
35592;SDS011;64447;52.140;5.602;2023-09-08T21:05:59;34.00;;;29.65;;
35592;SDS011;64447;52.140;5.602;2023-09-08T21:08:25;32.70;;;28.75;;
35592;SDS011;64447;52.140;5.602;2023-09-08T21:10:54;40.80;;;30.27;;
35592;SDS011;64447;52.140;5.602;2023-09-08T21:13:21;35.45;;;29.98;;
35592;SDS011;64447;52.140;5.602;2023-09-08T21:22:31;38.40;;;29.33;;
35592;SDS011;64447;52.140;5.602;2023-09-08T21:24:56;32.38;;;28.98;;
35592;SDS011;64447;52.140;5.602;2023-09-08T21:27:22;37.92;;;31.17;;
35592;SDS011;64447;52.140;5.602;2023-09-08T21:29:50;35.67;;;29.85;;
35592;SDS011;64447;52.140;5.602;2023-09-08T21:32:21;36.60;;;30.33;;
35592;SDS011;64447;52.140;5.602;2023-09-08T21:34:47;36.45;;;31.05;;
35592;SDS011;64447;52.140;5.602;2023-09-08T21:37:15;39.55;;;31.30;;
35592;SDS011;64447;52.140;5.602;2023-09-08T21:39:41;38.00;;;31.85;;
35592;SDS011;64447;52.140;5.602;2023-09-08T21:42:06;36.83;;;30.40;;
35592;SDS011;64447;52.140;5.602;2023-09-08T21:44:32;35.38;;;30.20;;
35592;SDS011;64447;52.140;5.602;2023-09-08T21:46:58;37.28;;;31.02;;
35592;SDS011;64447;52.140;5.602;2023-09-08T21:49:23;35.13;;;30.25;;
35592;SDS011;64447;52.140;5.602;2023-09-08T21:51:49;34.28;;;30.58;;
35592;SDS011;64447;52.140;5.602;2023-09-08T21:54:16;40.28;;;30.85;;
35592;SDS011;64447;52.140;5.602;2023-09-08T21:56:42;33.83;;;30.02;;
35592;SDS011;64447;52.140;5.602;2023-09-08T21:59:08;35.22;;;29.75;;
35592;SDS011;64447;52.140;5.602;2023-09-08T22:01:33;34.50;;;30.80;;
35592;SDS011;64447;52.140;5.602;2023-09-08T22:03:59;36.10;;;30.38;;
35592;SDS011;64447;52.140;5.602;2023-09-08T22:06:24;32.47;;;28.50;;
35592;SDS011;64447;52.140;5.602;2023-09-08T22:08:50;37.33;;;30.20;;
35592;SDS011;64447;52.140;5.602;2023-09-08T22:11:16;35.00;;;30.20;;
35592;SDS011;64447;52.140;5.602;2023-09-08T22:13:41;37.40;;;30.85;;
35592;SDS011;64447;52.140;5.602;2023-09-08T22:16:07;35.90;;;31.13;;
35592;SDS011;64447;52.140;5.602;2023-09-08T22:21:55;33.47;;;29.88;;
35592;SDS011;64447;52.140;5.602;2023-09-08T22:24:21;36.15;;;30.38;;
35592;SDS011;64447;52.140;5.602;2023-09-08T22:26:46;33.67;;;30.08;;
35592;SDS011;64447;52.140;5.602;2023-09-08T22:29:12;32.28;;;28.83;;
35592;SDS011;64447;52.140;5.602;2023-09-08T22:31:38;34.08;;;30.38;;
35592;SDS011;64447;52.140;5.602;2023-09-08T22:34:03;34.28;;;30.52;;
35592;SDS011;64447;52.140;5.602;2023-09-08T22:36:29;34.00;;;30.30;;
35592;SDS011;64447;52.140;5.602;2023-09-08T22:38:54;32.92;;;28.77;;
35592;SDS011;64447;52.140;5.602;2023-09-08T22:41:20;34.63;;;30.38;;
35592;SDS011;64447;52.140;5.602;2023-09-08T22:43:46;34.47;;;30.80;;
35592;SDS011;64447;52.140;5.602;2023-09-08T22:46:12;36.08;;;30.48;;
35592;SDS011;64447;52.140;5.602;2023-09-08T22:52:13;35.10;;;30.85;;
35592;SDS011;64447;52.140;5.602;2023-09-08T22:54:39;34.78;;;31.05;;
35592;SDS011;64447;52.140;5.602;2023-09-08T22:57:04;37.50;;;31.52;;
35592;SDS011;64447;52.140;5.602;2023-09-08T22:59:30;33.40;;;29.98;;
35592;SDS011;64447;52.140;5.602;2023-09-08T23:01:56;34.25;;;30.63;;
35592;SDS011;64447;52.140;5.602;2023-09-08T23:04:21;40.83;;;33.13;;
35592;SDS011;64447;52.140;5.602;2023-09-08T23:06:47;37.38;;;32.28;;
35592;SDS011;64447;52.140;5.602;2023-09-08T23:09:12;36.13;;;32.30;;
35592;SDS011;64447;52.140;5.602;2023-09-08T23:11:38;38.92;;;31.75;;
35592;SDS011;64447;52.140;5.602;2023-09-08T23:14:03;36.25;;;32.17;;
35592;SDS011;64447;52.140;5.602;2023-09-08T23:16:29;37.40;;;31.08;;
35592;SDS011;64447;52.140;5.602;2023-09-08T23:22:17;36.70;;;32.35;;
35592;SDS011;64447;52.140;5.602;2023-09-08T23:24:42;34.80;;;30.80;;
35592;SDS011;64447;52.140;5.602;2023-09-08T23:27:08;36.92;;;32.60;;
35592;SDS011;64447;52.140;5.602;2023-09-08T23:29:33;36.00;;;31.48;;
35592;SDS011;64447;52.140;5.602;2023-09-08T23:31:59;34.88;;;31.05;;
35592;SDS011;64447;52.140;5.602;2023-09-08T23:34:24;33.97;;;30.38;;
35592;SDS011;64447;52.140;5.602;2023-09-08T23:36:50;33.42;;;29.90;;
35592;SDS011;64447;52.140;5.602;2023-09-08T23:39:16;33.67;;;30.10;;
35592;SDS011;64447;52.140;5.602;2023-09-08T23:41:43;32.83;;;29.42;;
35592;SDS011;64447;52.140;5.602;2023-09-08T23:44:09;36.90;;;32.10;;
35592;SDS011;64447;52.140;5.602;2023-09-08T23:46:34;33.88;;;30.23;;
35592;SDS011;64447;52.140;5.602;2023-09-08T23:52:21;32.75;;;29.35;;
35592;SDS011;64447;52.140;5.602;2023-09-08T23:54:47;36.13;;;31.05;;
35592;SDS011;64447;52.140;5.602;2023-09-08T23:57:13;37.95;;;32.08;;
35592;SDS011;64447;52.140;5.602;2023-09-08T23:59:39;34.67;;;30.95;;
